createdAt,value
2019-04-29T00:01:08.251Z,5.97
2019-04-29T00:03:36.205Z,3.90
2019-04-29T00:06:04.435Z,7.03
2019-04-29T00:08:32.466Z,7.17
2019-04-29T00:11:00.405Z,6.23
2019-04-29T00:13:28.523Z,6.97
2019-04-29T00:16:18.561Z,6.07
2019-04-29T00:19:11.687Z,7.03
2019-04-29T00:21:40.024Z,5.07
2019-04-29T00:24:08.009Z,5.13
2019-04-29T00:26:36.367Z,15.20
2019-04-29T00:29:04.381Z,6.30
2019-04-29T00:31:32.402Z,6.23
2019-04-29T00:34:00.507Z,10.07
2019-04-29T00:36:32.094Z,6.73
2019-04-29T00:39:25.189Z,6.83
2019-04-29T00:42:11.176Z,6.63
2019-04-29T00:44:39.226Z,4.93
2019-04-29T00:47:07.250Z,4.47
2019-04-29T00:49:35.291Z,7.40
2019-04-29T00:52:03.316Z,8.83
2019-04-29T00:54:37.356Z,7.07
2019-04-29T00:57:05.382Z,7.37
2019-04-29T00:59:33.393Z,9.90
2019-04-29T01:02:01.599Z,5.83
2019-04-29T01:04:29.614Z,9.87
2019-04-29T01:06:57.648Z,10.10
2019-04-29T01:09:27.394Z,7.53
2019-04-29T01:11:55.461Z,6.37
2019-04-29T01:14:23.422Z,7.63
2019-04-29T01:16:51.445Z,6.10
2019-04-29T01:19:19.487Z,12.90
2019-04-29T01:21:47.496Z,7.83
2019-04-29T01:24:15.522Z,10.20
2019-04-29T01:27:04.011Z,6.40
2019-04-29T01:29:32.185Z,5.77
2019-04-29T01:32:00.353Z,8.73
2019-04-29T01:34:33.252Z,6.70
2019-04-29T01:37:01.193Z,7.60
2019-04-29T01:39:37.719Z,7.10
2019-04-29T01:42:16.543Z,6.83
2019-04-29T01:47:53.857Z,5.87
2019-04-29T01:50:21.894Z,7.20
2019-04-29T01:52:49.932Z,8.17
2019-04-29T01:55:17.981Z,10.50
2019-04-29T01:57:45.981Z,7.97
2019-04-29T02:00:14.499Z,7.83
2019-04-29T02:02:42.513Z,9.13
2019-04-29T02:05:10.540Z,13.27
2019-04-29T02:07:38.501Z,12.33
2019-04-29T02:10:16.920Z,11.70
2019-04-29T02:12:45.013Z,11.37
2019-04-29T02:15:13.091Z,13.47
2019-04-29T02:17:41.167Z,12.27
2019-04-29T02:20:09.195Z,11.30
2019-04-29T02:22:45.483Z,11.53
2019-04-29T02:25:18.012Z,13.13
2019-04-29T02:27:46.039Z,12.20
2019-04-29T02:30:22.458Z,11.93
2019-04-29T02:32:50.560Z,14.67
2019-04-29T02:35:18.616Z,12.80
2019-04-29T02:37:46.661Z,14.27
2019-04-29T02:40:25.417Z,19.60
2019-04-29T02:42:59.357Z,17.23
2019-04-29T02:45:30.557Z,17.80
2019-04-29T02:47:58.595Z,13.00
2019-04-29T02:50:26.699Z,13.80
2019-04-29T02:52:54.763Z,14.10
2019-04-29T02:55:28.682Z,15.53
2019-04-29T02:58:12.629Z,16.53
2019-04-29T03:00:59.680Z,17.50
2019-04-29T03:03:36.633Z,15.17
2019-04-29T03:06:04.824Z,18.63
2019-04-29T03:08:32.899Z,14.83
2019-04-29T03:11:00.951Z,15.27
2019-04-29T03:13:29.018Z,14.40
2019-04-29T03:15:56.992Z,15.77
2019-04-29T03:18:26.582Z,15.27
2019-04-29T03:21:05.490Z,17.10
2019-04-29T03:23:33.797Z,14.20
2019-04-29T03:26:01.826Z,14.23
2019-04-29T03:28:29.871Z,14.23
2019-04-29T03:30:58.028Z,17.00
2019-04-29T03:33:28.535Z,14.37
2019-04-29T03:35:56.554Z,16.00
2019-04-29T03:38:24.631Z,17.43
2019-04-29T03:40:52.654Z,16.43
2019-04-29T03:43:20.741Z,15.47
2019-04-29T03:45:48.894Z,18.10
2019-04-29T03:48:16.966Z,15.13
2019-04-29T03:50:45.018Z,17.50
2019-04-29T03:53:13.102Z,14.20
2019-04-29T03:55:41.127Z,18.20
2019-04-29T03:58:09.266Z,14.77
2019-04-29T04:00:37.339Z,18.97
2019-04-29T04:03:15.175Z,16.50
2019-04-29T04:06:04.695Z,16.37
2019-04-29T04:08:42.094Z,15.10
2019-04-29T04:11:10.136Z,15.10
2019-04-29T04:13:38.178Z,18.03
2019-04-29T04:16:08.142Z,15.93
2019-04-29T04:18:36.001Z,17.90
2019-04-29T04:21:04.071Z,17.13
2019-04-29T04:23:32.156Z,17.07
2019-04-29T04:26:00.434Z,17.57
2019-04-29T04:28:28.513Z,17.43
2019-04-29T04:30:56.589Z,16.27
2019-04-29T04:33:24.636Z,17.47
2019-04-29T04:35:52.665Z,18.10
2019-04-29T04:38:20.787Z,21.63
2019-04-29T04:40:56.130Z,21.47
2019-04-29T04:43:24.135Z,17.43
2019-04-29T04:45:52.144Z,16.77
2019-04-29T04:48:20.098Z,20.60
2019-04-29T04:53:57.602Z,17.87
2019-04-29T04:56:25.772Z,20.10
2019-04-29T04:58:53.848Z,20.80
2019-04-29T05:01:21.989Z,18.87
2019-04-29T05:03:50.007Z,21.43
2019-04-29T05:06:18.063Z,20.27
2019-04-29T05:08:46.331Z,19.67
2019-04-29T05:11:14.415Z,20.43
2019-04-29T05:13:42.490Z,18.27
2019-04-29T05:16:10.546Z,19.17
2019-04-29T05:18:38.591Z,20.60
2019-04-29T05:21:06.742Z,21.50
2019-04-29T05:23:37.619Z,22.27
2019-04-29T05:26:05.651Z,24.73
2019-04-29T05:28:33.679Z,20.20
2019-04-29T05:31:01.715Z,20.80
2019-04-29T05:33:29.779Z,21.67
2019-04-29T05:36:15.143Z,22.70
2019-04-29T05:38:50.570Z,19.90
2019-04-29T05:41:19.347Z,19.57
2019-04-29T05:44:03.672Z,21.73
2019-04-29T05:46:50.665Z,20.73
2019-04-29T05:49:23.119Z,27.23
2019-04-29T05:52:03.262Z,24.03
2019-04-29T05:54:33.519Z,23.47
2019-04-29T05:57:01.650Z,27.50
2019-04-29T05:59:29.685Z,22.53
2019-04-29T06:01:57.729Z,22.80
2019-04-29T06:04:37.182Z,24.57
2019-04-29T06:07:03.702Z,22.60
2019-04-29T06:09:31.769Z,25.63
2019-04-29T06:11:59.837Z,25.00
2019-04-29T06:14:27.986Z,23.77
2019-04-29T06:16:57.476Z,24.93
2019-04-29T06:19:25.771Z,25.27
2019-04-29T06:21:53.860Z,25.67
2019-04-29T06:24:21.916Z,23.63
2019-04-29T06:26:49.998Z,26.00
2019-04-29T06:29:18.155Z,26.50
2019-04-29T06:31:46.417Z,25.87
2019-04-29T06:34:14.583Z,35.60
2019-04-29T06:36:42.682Z,26.60
2019-04-29T06:39:10.748Z,24.53
2019-04-29T06:41:40.538Z,31.53
2019-04-29T06:44:16.079Z,25.63
2019-04-29T06:46:39.359Z,30.93
2019-04-29T06:49:10.443Z,27.20
2019-04-29T06:51:37.282Z,30.17
2019-04-29T06:54:05.361Z,27.03
2019-04-29T06:59:43.069Z,28.93
2019-04-29T07:02:14.255Z,28.83
2019-04-29T07:04:42.313Z,32.87
2019-04-29T07:07:10.366Z,28.77
2019-04-29T07:09:38.642Z,28.73
2019-04-29T07:12:08.086Z,28.67
2019-04-29T07:14:38.559Z,28.40
2019-04-29T07:17:07.216Z,29.60
2019-04-29T07:19:35.527Z,28.83
2019-04-29T07:22:03.742Z,30.67
2019-04-29T07:24:32.036Z,35.13
2019-04-29T07:27:02.754Z,28.17
2019-04-29T07:29:32.081Z,28.27
2019-04-29T07:32:04.739Z,27.50
2019-04-29T07:34:33.876Z,27.67
2019-04-29T07:37:02.447Z,28.97
2019-04-29T07:39:31.702Z,26.50
2019-04-29T07:42:25.083Z,28.67
2019-04-29T07:45:08.565Z,29.93
2019-04-29T07:47:37.646Z,23.77
2019-04-29T07:53:36.753Z,27.53
2019-04-29T07:55:57.462Z,25.33
2019-04-29T07:58:27.292Z,25.03
2019-04-29T08:00:58.349Z,26.43
2019-04-29T08:03:26.466Z,23.07
2019-04-29T08:05:54.643Z,24.53
2019-04-29T08:08:23.760Z,23.27
2019-04-29T08:10:56.344Z,25.47
2019-04-29T08:16:31.271Z,26.23
2019-04-29T08:18:59.440Z,21.40
2019-04-29T08:21:27.526Z,21.33
2019-04-29T08:23:55.700Z,21.17
2019-04-29T08:26:23.742Z,21.17
2019-04-29T08:28:52.940Z,21.43
2019-04-29T08:31:22.212Z,22.93
2019-04-29T08:33:50.433Z,20.10
2019-04-29T08:36:18.506Z,20.33
2019-04-29T08:38:46.579Z,20.43
2019-04-29T08:41:14.616Z,19.70
2019-04-29T08:46:58.763Z,18.10
2019-04-29T08:49:26.834Z,17.10
2019-04-29T08:51:55.033Z,16.43
2019-04-29T08:54:23.138Z,17.33
2019-04-29T08:57:02.265Z,16.13
2019-04-29T08:59:40.221Z,14.87
2019-04-29T09:02:10.086Z,15.97
2019-04-29T09:04:52.538Z,14.33
2019-04-29T09:07:37.992Z,15.57
2019-04-29T09:10:07.655Z,13.83
2019-04-29T09:12:35.660Z,14.53
2019-04-29T09:15:03.986Z,14.47
2019-04-29T09:17:32.015Z,14.07
2019-04-29T09:20:00.081Z,17.63
2019-04-29T09:22:30.112Z,15.57
2019-04-29T09:25:16.767Z,15.63
2019-04-29T09:27:46.156Z,14.50
2019-04-29T09:30:15.614Z,14.60
2019-04-29T09:32:43.923Z,14.37
2019-04-29T09:35:12.065Z,15.07
2019-04-29T09:37:40.110Z,16.50
2019-04-29T09:40:09.182Z,15.60
2019-04-29T09:42:50.351Z,15.27
2019-04-29T09:45:36.967Z,15.60
2019-04-29T09:48:05.099Z,15.93
2019-04-29T09:50:34.191Z,14.73
2019-04-29T09:53:02.883Z,14.80
2019-04-29T09:55:31.092Z,13.77
2019-04-29T09:57:59.383Z,15.13
2019-04-29T10:00:36.350Z,15.13
2019-04-29T10:03:13.803Z,15.70
2019-04-29T10:05:44.984Z,16.10
2019-04-29T10:08:13.165Z,17.60
2019-04-29T10:10:41.228Z,16.63
2019-04-29T10:13:09.296Z,16.97
2019-04-29T10:15:55.900Z,16.67
2019-04-29T10:18:31.441Z,17.93
2019-04-29T10:21:06.335Z,18.20
2019-04-29T10:23:34.392Z,17.93
2019-04-29T10:26:02.419Z,18.43
2019-04-29T10:28:30.712Z,18.47
2019-04-29T10:30:58.789Z,19.50
2019-04-29T10:33:27.002Z,19.33
2019-04-29T10:35:55.023Z,19.70
2019-04-29T10:38:23.093Z,21.03
2019-04-29T10:41:11.577Z,20.50
2019-04-29T10:44:17.240Z,19.57
2019-04-29T10:47:14.747Z,20.83
2019-04-29T10:49:53.678Z,22.43
2019-04-29T10:52:21.798Z,21.80
2019-04-29T10:54:51.133Z,21.30
2019-04-29T10:57:20.473Z,23.13
2019-04-29T10:59:52.080Z,24.80
2019-04-29T11:02:33.091Z,22.70
2019-04-29T11:05:12.028Z,23.73
2019-04-29T11:07:41.283Z,24.10
2019-04-29T11:10:34.799Z,23.70
2019-04-29T11:13:03.372Z,23.40
2019-04-29T11:18:08.509Z,22.53
2019-04-29T11:20:36.713Z,23.30
2019-04-29T11:23:23.538Z,26.77
2019-04-29T11:26:19.600Z,24.23
2019-04-29T11:28:51.282Z,23.93
2019-04-29T11:31:19.271Z,24.10
2019-04-29T11:34:15.769Z,24.57
2019-04-29T11:36:44.202Z,25.47
2019-04-29T11:39:15.419Z,23.63
2019-04-29T11:41:43.875Z,23.67
2019-04-29T11:44:11.972Z,23.53
2019-04-29T11:46:40.053Z,26.07
2019-04-29T11:52:17.725Z,28.57
2019-04-29T11:54:45.954Z,65.20
2019-04-29T11:57:21.893Z,24.07
2019-04-29T12:00:10.260Z,23.80
2019-04-29T12:03:03.416Z,24.67
2019-04-29T12:05:44.882Z,23.40
2019-04-29T12:08:16.955Z,23.67
2019-04-29T12:10:48.481Z,23.13
2019-04-29T12:16:43.983Z,24.67
2019-04-29T12:19:21.265Z,24.23
2019-04-29T12:21:48.962Z,27.37
2019-04-29T12:24:17.521Z,23.87
2019-04-29T12:26:45.850Z,23.67
2019-04-29T12:29:18.337Z,23.20
2019-04-29T12:31:54.286Z,23.93
2019-04-29T12:34:41.354Z,23.43
2019-04-29T12:37:29.798Z,24.47
2019-04-29T12:40:27.956Z,23.67
2019-04-29T12:43:18.176Z,23.57
2019-04-29T12:45:53.810Z,22.53
2019-04-29T12:48:25.065Z,21.60
2019-04-29T12:50:57.360Z,22.77
2019-04-29T12:53:21.920Z,22.00
2019-04-29T12:55:53.685Z,22.00
2019-04-29T12:58:24.165Z,21.37
2019-04-29T13:00:59.705Z,22.30
2019-04-29T13:03:43.240Z,24.07
2019-04-29T13:06:39.440Z,21.93
2019-04-29T13:09:17.596Z,22.13
2019-04-29T13:11:48.256Z,21.37
2019-04-29T13:14:08.675Z,22.17
2019-04-29T13:16:57.029Z,22.17
2019-04-29T13:19:32.654Z,21.63
2019-04-29T13:22:00.724Z,19.87
2019-04-29T13:24:28.959Z,19.83
2019-04-29T13:26:56.983Z,21.53
2019-04-29T13:29:27.593Z,23.07
2019-04-29T13:31:54.882Z,20.10
2019-04-29T13:34:33.311Z,20.87
2019-04-29T13:37:07.125Z,18.27
2019-04-29T13:39:39.674Z,20.73
2019-04-29T13:42:02.885Z,21.33
2019-04-29T13:44:30.272Z,21.60
2019-04-29T13:47:16.206Z,21.27
2019-04-29T13:49:49.421Z,18.57
2019-04-29T13:52:18.310Z,19.53
2019-04-29T13:54:46.435Z,22.23
2019-04-29T13:57:16.051Z,19.77
2019-04-29T13:59:51.342Z,21.17
2019-04-29T14:02:31.449Z,23.40
2019-04-29T14:05:00.297Z,20.07
2019-04-29T14:07:28.143Z,19.40
2019-04-29T14:09:56.637Z,17.20
2019-04-29T14:12:47.944Z,17.60
2019-04-29T14:14:58.471Z,16.40
2019-04-29T14:17:26.924Z,16.00
2019-04-29T14:19:56.962Z,12.63
2019-04-29T14:22:23.760Z,15.27
2019-04-29T14:24:51.799Z,11.93
2019-04-29T14:27:24.902Z,12.07
2019-04-29T14:29:51.554Z,13.17
2019-04-29T14:32:32.860Z,14.03
2019-04-29T14:35:11.316Z,12.50
2019-04-29T14:37:36.658Z,12.70
2019-04-29T14:40:07.578Z,12.90
2019-04-29T14:43:27.052Z,11.47
2019-04-29T14:46:03.753Z,12.40
2019-04-29T14:48:42.520Z,13.03
2019-04-29T14:51:09.248Z,11.87
2019-04-29T14:53:37.424Z,11.37
2019-04-29T14:56:05.477Z,11.60
2019-04-29T14:58:33.692Z,11.90
2019-04-29T15:01:09.417Z,14.00
2019-04-29T15:03:56.856Z,11.63
2019-04-29T15:06:28.466Z,10.20
2019-04-29T15:08:54.847Z,11.67
2019-04-29T15:11:32.116Z,10.77
2019-04-29T15:14:00.424Z,10.93
2019-04-29T15:16:39.598Z,12.33
2019-04-29T15:19:26.029Z,10.60
2019-04-29T15:22:03.885Z,12.93
2019-04-29T15:24:32.329Z,14.27
2019-04-29T15:27:02.571Z,11.13
2019-04-29T15:29:33.464Z,13.67
2019-04-29T15:32:00.405Z,11.77
2019-04-29T15:34:28.456Z,14.07
2019-04-29T15:36:56.527Z,9.13
2019-04-29T15:39:25.658Z,11.80
2019-04-29T15:41:54.827Z,10.13
2019-04-29T15:44:23.471Z,10.50
2019-04-29T15:46:51.522Z,13.17
2019-04-29T15:49:20.080Z,15.37
2019-04-29T15:51:51.004Z,9.50
2019-04-29T15:54:19.256Z,12.10
2019-04-29T15:56:47.324Z,11.70
2019-04-29T15:59:15.480Z,12.00
2019-04-29T16:01:43.908Z,11.70
2019-04-29T16:04:20.555Z,13.23
2019-04-29T16:06:57.051Z,11.30
2019-04-29T16:09:50.794Z,10.53
2019-04-29T16:12:15.391Z,13.40
2019-04-29T16:14:42.671Z,12.67
2019-04-29T16:17:10.729Z,13.03
2019-04-29T16:19:38.887Z,12.67
2019-04-29T16:22:06.919Z,9.23
2019-04-29T16:24:38.214Z,10.73
2019-04-29T16:27:08.608Z,15.87
2019-04-29T16:29:35.294Z,10.60
2019-04-29T16:32:05.043Z,15.90
2019-04-29T16:34:37.560Z,16.53
2019-04-29T16:37:02.823Z,8.70
2019-04-29T16:39:31.056Z,10.50
2019-04-29T16:42:33.448Z,7.70
2019-04-29T16:45:06.056Z,8.73
2019-04-29T16:47:31.340Z,9.57
2019-04-29T16:50:04.653Z,8.13
2019-04-29T16:52:29.144Z,10.43
2019-04-29T16:54:59.167Z,12.77
2019-04-29T16:57:27.460Z,7.97
2019-04-29T16:59:55.522Z,8.53
2019-04-29T17:02:23.933Z,7.77
2019-04-29T17:04:52.126Z,7.73
2019-04-29T17:07:38.649Z,9.20
2019-04-29T17:10:23.743Z,17.77
2019-04-29T17:12:52.059Z,22.17
2019-04-29T17:15:25.030Z,9.47
2019-04-29T17:17:49.835Z,104.70
2019-04-29T17:20:18.307Z,12.03
2019-04-29T17:22:46.587Z,11.57
2019-04-29T17:25:15.198Z,8.60
2019-04-29T17:27:59.011Z,8.43
2019-04-29T17:30:49.845Z,8.27
2019-04-29T17:33:50.818Z,7.87
2019-04-29T17:36:23.660Z,8.77
2019-04-29T17:38:49.208Z,9.27
2019-04-29T17:41:17.278Z,8.57
2019-04-29T17:44:07.273Z,7.60
2019-04-29T17:46:53.014Z,7.03
2019-04-29T17:49:33.508Z,5.57
2019-04-29T17:52:04.249Z,8.80
2019-04-29T17:54:36.105Z,5.93
2019-04-29T17:57:26.358Z,4.93
2019-04-29T18:00:05.076Z,6.70
2019-04-29T18:03:07.900Z,4.57
2019-04-29T18:05:55.703Z,5.93
2019-04-29T18:08:39.845Z,7.97
2019-04-29T18:11:08.246Z,5.73
2019-04-29T18:13:36.750Z,8.30
2019-04-29T18:16:17.360Z,5.77
2019-04-29T18:18:57.659Z,7.93
2019-04-29T18:21:43.271Z,6.07
2019-04-29T18:24:45.221Z,7.23
2019-04-29T18:27:16.521Z,8.43
2019-04-29T18:29:45.809Z,8.40
2019-04-29T18:32:15.509Z,6.27
2019-04-29T18:34:46.244Z,8.97
2019-04-29T18:37:15.235Z,7.17
2019-04-29T18:39:44.127Z,8.90
2019-04-29T18:42:12.481Z,7.13
2019-04-29T18:44:53.876Z,6.27
2019-04-29T18:47:19.988Z,8.17
2019-04-29T18:49:39.955Z,6.40
2019-04-29T18:52:08.021Z,6.00
2019-04-29T18:54:37.454Z,6.77
2019-04-29T18:57:05.839Z,6.43
2019-04-29T18:59:35.001Z,7.40
2019-04-29T19:02:07.752Z,6.93
2019-04-29T19:04:38.678Z,8.77
2019-04-29T19:07:06.726Z,5.40
2019-04-29T19:09:37.136Z,5.67
2019-04-29T19:12:05.566Z,7.63
2019-04-29T19:14:35.319Z,4.17
2019-04-29T19:17:04.884Z,5.00
2019-04-29T19:19:39.071Z,4.33
2019-04-29T19:22:07.668Z,5.90
2019-04-29T19:24:36.349Z,7.97
2019-04-29T19:27:03.627Z,6.40
2019-04-29T19:29:32.478Z,6.57
2019-04-29T19:32:00.676Z,5.27
2019-04-29T19:34:39.949Z,7.23
2019-04-29T19:36:59.509Z,5.87
2019-04-29T19:39:27.701Z,3.83
2019-04-29T19:41:56.960Z,4.97
2019-04-29T19:44:26.500Z,5.33
2019-04-29T19:46:56.976Z,6.13
2019-04-29T19:49:25.816Z,5.50
2019-04-29T19:51:55.491Z,5.43
2019-04-29T19:54:28.301Z,3.50
2019-04-29T19:57:02.980Z,3.27
2019-04-29T19:59:26.329Z,8.77
2019-04-29T20:02:02.021Z,4.63
2019-04-29T20:04:33.913Z,5.67
2019-04-29T20:07:07.269Z,8.53
2019-04-29T20:09:34.309Z,5.83
2019-04-29T20:12:11.392Z,6.40
2019-04-29T20:14:34.662Z,6.20
2019-04-29T20:17:26.843Z,5.93
2019-04-29T20:20:00.927Z,4.97
2019-04-29T20:22:29.348Z,4.30
2019-04-29T20:24:57.759Z,5.80
2019-04-29T20:27:30.818Z,6.33
2019-04-29T20:29:56.589Z,5.20
2019-04-29T20:32:30.149Z,8.40
2019-04-29T20:34:59.005Z,9.90
2019-04-29T20:37:47.497Z,7.33
2019-04-29T20:40:16.065Z,6.60
2019-04-29T20:42:47.677Z,4.33
2019-04-29T20:45:15.496Z,6.37
2019-04-29T20:47:45.639Z,4.77
2019-04-29T20:50:15.606Z,6.53
2019-04-29T20:53:07.500Z,8.03
2019-04-29T20:55:36.489Z,5.57
2019-04-29T20:58:06.553Z,6.27
2019-04-29T21:00:37.654Z,5.37
2019-04-29T21:03:09.323Z,7.03
2019-04-29T21:05:47.127Z,5.83
2019-04-29T21:08:14.524Z,5.33
2019-04-29T21:10:43.028Z,5.30
2019-04-29T21:13:20.379Z,5.33
2019-04-29T21:16:00.734Z,5.00
2019-04-29T21:18:28.963Z,7.50
2019-04-29T21:20:59.707Z,5.63
2019-04-29T21:23:31.507Z,5.90
2019-04-29T21:26:00.419Z,6.97
2019-04-29T21:28:26.268Z,7.83
2019-04-29T21:30:54.991Z,4.73
2019-04-29T21:33:23.334Z,5.83
2019-04-29T21:36:09.209Z,7.10
2019-04-29T21:39:01.525Z,5.23
2019-04-29T21:41:31.473Z,6.70
2019-04-29T21:44:00.216Z,6.47
2019-04-29T21:46:29.490Z,7.83
2019-04-29T21:48:57.836Z,7.10
2019-04-29T21:51:25.941Z,7.10
2019-04-29T21:53:55.881Z,6.47
2019-04-29T21:56:25.689Z,6.90
2019-04-29T21:58:53.662Z,7.30
2019-04-29T22:01:21.794Z,6.13
2019-04-29T22:03:49.854Z,7.83
2019-04-29T22:06:17.927Z,5.63
2019-04-29T22:08:46.069Z,6.43
2019-04-29T22:11:15.536Z,5.20
2019-04-29T22:13:45.249Z,6.30
2019-04-29T22:16:15.838Z,6.63
2019-04-29T22:18:44.616Z,6.40
2019-04-29T22:21:16.938Z,5.60
2019-04-29T22:23:44.280Z,6.30
2019-04-29T22:26:16.370Z,7.27
2019-04-29T22:28:42.199Z,4.73
2019-04-29T22:31:33.987Z,6.53
2019-04-29T22:33:57.815Z,7.20
2019-04-29T22:36:52.754Z,5.67
2019-04-29T22:39:21.793Z,5.90
2019-04-29T22:42:08.019Z,6.60
2019-04-29T22:44:36.142Z,5.23
2019-04-29T22:47:05.693Z,6.90
2019-04-29T22:49:34.326Z,6.23
2019-04-29T22:52:02.382Z,7.43
2019-04-29T22:54:30.516Z,5.67
2019-04-29T22:56:58.763Z,5.13
2019-04-29T22:59:27.554Z,4.73
2019-04-29T23:01:55.764Z,7.60
2019-04-29T23:04:24.950Z,6.10
2019-04-29T23:06:53.128Z,6.33
2019-04-29T23:09:21.186Z,4.37
2019-04-29T23:11:49.412Z,4.33
2019-04-29T23:14:17.730Z,7.83
2019-04-29T23:16:47.479Z,6.33
2019-04-29T23:19:17.880Z,5.70
2019-04-29T23:22:15.381Z,6.90
2019-04-29T23:25:06.892Z,4.33
2019-04-29T23:27:36.071Z,5.10
2019-04-29T23:30:05.064Z,5.77
2019-04-29T23:32:33.100Z,4.27
2019-04-29T23:35:01.816Z,5.63
2019-04-29T23:37:30.926Z,7.73
2019-04-29T23:39:58.942Z,5.73
2019-04-29T23:42:26.967Z,6.03
2019-04-29T23:44:56.991Z,4.57
2019-04-29T23:47:25.778Z,4.47
2019-04-29T23:49:53.964Z,6.40
2019-04-29T23:52:21.915Z,6.03
2019-04-29T23:54:49.885Z,5.00
2019-04-29T23:57:37.372Z,5.13
